sensor_id;sensor_type;location;lat;lon;timestamp;pressure;altitude;pressure_sealevel;temperature;humidity
58385;BME280;44185;47.844;8.966;2022-11-20T00:01:26;95723.09;;;1.03;100.00
58385;BME280;44185;47.844;8.966;2022-11-20T00:03:54;95725.28;;;1.11;100.00
58385;BME280;44185;47.844;8.966;2022-11-20T00:06:21;95727.88;;;1.11;100.00
58385;BME280;44185;47.844;8.966;2022-11-20T00:08:47;95735.03;;;1.07;100.00
58385;BME280;44185;47.844;8.966;2022-11-20T00:11:14;95738.97;;;1.15;100.00
58385;BME280;44185;47.844;8.966;2022-11-20T00:13:40;95736.97;;;1.04;100.00
58385;BME280;44185;47.844;8.966;2022-11-20T00:16:09;95742.78;;;0.93;100.00
58385;BME280;44185;47.844;8.966;2022-11-20T00:18:35;95741.94;;;0.92;100.00
58385;BME280;44185;47.844;8.966;2022-11-20T00:21:03;95741.59;;;0.98;100.00
58385;BME280;44185;47.844;8.966;2022-11-20T00:23:29;95743.03;;;0.88;100.00
58385;BME280;44185;47.844;8.966;2022-11-20T00:25:54;95747.00;;;0.95;100.00
58385;BME280;44185;47.844;8.966;2022-11-20T00:28:20;95738.81;;;0.85;100.00
58385;BME280;44185;47.844;8.966;2022-11-20T00:30:45;95746.88;;;0.97;100.00
58385;BME280;44185;47.844;8.966;2022-11-20T00:33:10;95739.81;;;0.99;100.00
58385;BME280;44185;47.844;8.966;2022-11-20T00:35:36;95752.00;;;0.98;100.00
58385;BME280;44185;47.844;8.966;2022-11-20T00:38:03;95752.78;;;0.84;100.00
58385;BME280;44185;47.844;8.966;2022-11-20T00:40:28;95755.38;;;0.84;100.00
58385;BME280;44185;47.844;8.966;2022-11-20T00:42:54;95757.06;;;0.85;100.00
58385;BME280;44185;47.844;8.966;2022-11-20T00:45:19;95764.13;;;0.83;100.00
58385;BME280;44185;47.844;8.966;2022-11-20T00:47:44;95759.59;;;0.87;100.00
58385;BME280;44185;47.844;8.966;2022-11-20T00:50:10;95766.41;;;0.90;100.00
58385;BME280;44185;47.844;8.966;2022-11-20T00:52:35;95773.22;;;0.92;100.00
58385;BME280;44185;47.844;8.966;2022-11-20T00:55:02;95774.03;;;0.76;100.00
58385;BME280;44185;47.844;8.966;2022-11-20T00:57:28;95770.34;;;0.81;100.00
58385;BME280;44185;47.844;8.966;2022-11-20T00:59:53;95774.69;;;0.80;100.00
58385;BME280;44185;47.844;8.966;2022-11-20T01:02:19;95773.38;;;0.89;100.00
58385;BME280;44185;47.844;8.966;2022-11-20T01:04:44;95773.97;;;0.94;100.00
58385;BME280;44185;47.844;8.966;2022-11-20T01:07:09;95772.03;;;0.98;100.00
58385;BME280;44185;47.844;8.966;2022-11-20T01:09:35;95764.59;;;1.06;100.00
58385;BME280;44185;47.844;8.966;2022-11-20T01:12:02;95767.16;;;1.08;100.00
58385;BME280;44185;47.844;8.966;2022-11-20T01:14:27;95768.00;;;1.08;100.00
58385;BME280;44185;47.844;8.966;2022-11-20T01:16:52;95762.78;;;1.08;100.00
58385;BME280;44185;47.844;8.966;2022-11-20T01:19:19;95770.00;;;1.03;100.00
58385;BME280;44185;47.844;8.966;2022-11-20T01:21:47;95769.31;;;0.83;100.00
58385;BME280;44185;47.844;8.966;2022-11-20T01:24:15;95771.78;;;0.86;100.00
58385;BME280;44185;47.844;8.966;2022-11-20T01:26:43;95776.97;;;0.70;100.00
58385;BME280;44185;47.844;8.966;2022-11-20T01:29:12;95785.13;;;0.80;100.00
58385;BME280;44185;47.844;8.966;2022-11-20T01:31:39;95783.78;;;0.89;100.00
58385;BME280;44185;47.844;8.966;2022-11-20T01:34:06;95775.81;;;0.92;100.00
58385;BME280;44185;47.844;8.966;2022-11-20T01:36:33;95780.66;;;0.98;100.00
58385;BME280;44185;47.844;8.966;2022-11-20T01:39:00;95783.78;;;1.05;100.00
58385;BME280;44185;47.844;8.966;2022-11-20T01:41:28;95785.66;;;1.19;100.00
58385;BME280;44185;47.844;8.966;2022-11-20T01:43:54;95788.91;;;1.23;100.00
58385;BME280;44185;47.844;8.966;2022-11-20T01:46:21;95797.81;;;1.35;100.00
58385;BME280;44185;47.844;8.966;2022-11-20T01:48:50;95785.53;;;1.37;100.00
58385;BME280;44185;47.844;8.966;2022-11-20T01:51:22;95791.59;;;1.38;100.00
58385;BME280;44185;47.844;8.966;2022-11-20T01:53:50;95794.22;;;1.21;100.00
58385;BME280;44185;47.844;8.966;2022-11-20T01:56:18;95793.19;;;1.24;100.00
58385;BME280;44185;47.844;8.966;2022-11-20T01:58:47;95793.09;;;1.26;100.00
58385;BME280;44185;47.844;8.966;2022-11-20T02:01:14;95785.13;;;1.29;100.00
58385;BME280;44185;47.844;8.966;2022-11-20T02:03:41;95793.41;;;1.36;100.00
58385;BME280;44185;47.844;8.966;2022-11-20T02:06:11;95786.84;;;1.44;100.00
58385;BME280;44185;47.844;8.966;2022-11-20T02:08:38;95784.66;;;1.53;100.00
58385;BME280;44185;47.844;8.966;2022-11-20T02:11:04;95787.50;;;1.64;100.00
58385;BME280;44185;47.844;8.966;2022-11-20T02:13:29;95795.22;;;1.66;100.00
58385;BME280;44185;47.844;8.966;2022-11-20T02:15:55;95792.06;;;1.75;100.00
58385;BME280;44185;47.844;8.966;2022-11-20T02:18:21;95788.38;;;1.80;100.00
58385;BME280;44185;47.844;8.966;2022-11-20T02:20:50;95788.66;;;1.75;100.00
58385;BME280;44185;47.844;8.966;2022-11-20T02:23:23;95785.78;;;1.80;100.00
58385;BME280;44185;47.844;8.966;2022-11-20T02:25:54;95780.06;;;1.73;100.00
58385;BME280;44185;47.844;8.966;2022-11-20T02:28:21;95799.31;;;1.70;100.00
58385;BME280;44185;47.844;8.966;2022-11-20T02:30:47;95796.25;;;1.63;100.00
58385;BME280;44185;47.844;8.966;2022-11-20T02:33:12;95794.75;;;1.59;100.00
58385;BME280;44185;47.844;8.966;2022-11-20T02:35:43;95784.38;;;1.58;100.00
58385;BME280;44185;47.844;8.966;2022-11-20T02:38:09;95788.75;;;1.57;100.00
58385;BME280;44185;47.844;8.966;2022-11-20T02:40:35;95782.50;;;1.76;100.00
58385;BME280;44185;47.844;8.966;2022-11-20T02:43:02;95782.09;;;1.67;100.00
58385;BME280;44185;47.844;8.966;2022-11-20T02:45:27;95789.09;;;1.67;100.00
58385;BME280;44185;47.844;8.966;2022-11-20T02:47:53;95780.28;;;1.53;100.00
58385;BME280;44185;47.844;8.966;2022-11-20T02:50:19;95778.19;;;1.44;100.00
58385;BME280;44185;47.844;8.966;2022-11-20T02:52:44;95780.34;;;1.52;100.00
58385;BME280;44185;47.844;8.966;2022-11-20T02:55:10;95776.31;;;1.46;100.00
58385;BME280;44185;47.844;8.966;2022-11-20T02:57:35;95782.50;;;1.45;100.00
58385;BME280;44185;47.844;8.966;2022-11-20T03:00:03;95776.19;;;1.33;100.00
58385;BME280;44185;47.844;8.966;2022-11-20T03:02:29;95781.91;;;1.40;100.00
58385;BME280;44185;47.844;8.966;2022-11-20T09:45:23;95864.66;;;4.16;100.00
58385;BME280;44185;47.844;8.966;2022-11-20T09:48:01;95870.09;;;4.26;100.00
58385;BME280;44185;47.844;8.966;2022-11-20T09:50:32;95863.09;;;4.27;100.00
58385;BME280;44185;47.844;8.966;2022-11-20T09:53:08;95865.81;;;4.38;100.00
58385;BME280;44185;47.844;8.966;2022-11-20T09:55:37;95859.97;;;4.48;100.00
58385;BME280;44185;47.844;8.966;2022-11-20T09:58:05;95865.41;;;4.44;100.00
58385;BME280;44185;47.844;8.966;2022-11-20T10:00:34;95859.66;;;4.52;100.00
58385;BME280;44185;47.844;8.966;2022-11-20T10:03:02;95864.16;;;4.50;100.00
58385;BME280;44185;47.844;8.966;2022-11-20T10:05:35;95860.91;;;4.47;100.00
58385;BME280;44185;47.844;8.966;2022-11-20T10:08:15;95861.44;;;4.52;100.00
58385;BME280;44185;47.844;8.966;2022-11-20T10:10:44;95852.13;;;4.61;100.00
58385;BME280;44185;47.844;8.966;2022-11-20T10:13:20;95866.59;;;4.66;100.00
58385;BME280;44185;47.844;8.966;2022-11-20T10:15:57;95865.22;;;4.74;100.00
58385;BME280;44185;47.844;8.966;2022-11-20T10:18:37;95859.78;;;4.77;100.00
58385;BME280;44185;47.844;8.966;2022-11-20T10:21:09;95864.56;;;4.83;100.00
58385;BME280;44185;47.844;8.966;2022-11-20T10:23:49;95856.31;;;4.76;100.00
58385;BME280;44185;47.844;8.966;2022-11-20T10:26:22;95855.47;;;4.76;100.00
58385;BME280;44185;47.844;8.966;2022-11-20T10:28:57;95856.31;;;4.63;100.00
58385;BME280;44185;47.844;8.966;2022-11-20T10:31:31;95859.03;;;4.75;100.00
58385;BME280;44185;47.844;8.966;2022-11-20T10:34:00;95862.41;;;4.77;100.00
58385;BME280;44185;47.844;8.966;2022-11-20T10:36:32;95855.38;;;4.77;100.00
58385;BME280;44185;47.844;8.966;2022-11-20T10:39:04;95859.31;;;4.83;100.00
58385;BME280;44185;47.844;8.966;2022-11-20T10:41:34;95853.56;;;4.78;100.00
58385;BME280;44185;47.844;8.966;2022-11-20T10:44:04;95855.16;;;4.67;100.00
58385;BME280;44185;47.844;8.966;2022-11-20T10:46:37;95854.84;;;4.85;100.00
58385;BME280;44185;47.844;8.966;2022-11-20T10:49:09;95843.06;;;4.91;100.00
58385;BME280;44185;47.844;8.966;2022-11-20T10:51:37;95851.34;;;4.98;100.00
58385;BME280;44185;47.844;8.966;2022-11-20T10:54:12;95850.69;;;5.07;100.00
58385;BME280;44185;47.844;8.966;2022-11-20T10:56:42;95853.97;;;5.11;100.00
58385;BME280;44185;47.844;8.966;2022-11-20T10:59:35;95849.38;;;5.02;100.00
58385;BME280;44185;47.844;8.966;2022-11-20T11:02:16;95839.28;;;5.08;100.00
58385;BME280;44185;47.844;8.966;2022-11-20T11:04:45;95839.81;;;5.00;100.00
58385;BME280;44185;47.844;8.966;2022-11-20T11:07:14;95840.44;;;5.04;100.00
58385;BME280;44185;47.844;8.966;2022-11-20T11:09:43;95841.38;;;5.03;100.00
58385;BME280;44185;47.844;8.966;2022-11-20T11:12:09;95837.91;;;5.03;100.00
58385;BME280;44185;47.844;8.966;2022-11-20T11:14:46;95840.53;;;5.03;100.00
58385;BME280;44185;47.844;8.966;2022-11-20T11:17:25;95835.22;;;5.04;100.00
58385;BME280;44185;47.844;8.966;2022-11-20T11:19:59;95840.66;;;5.01;100.00
58385;BME280;44185;47.844;8.966;2022-11-20T11:22:25;95840.53;;;5.03;100.00
58385;BME280;44185;47.844;8.966;2022-11-20T11:24:52;95822.38;;;4.99;100.00
58385;BME280;44185;47.844;8.966;2022-11-20T11:27:17;95814.84;;;4.95;100.00
58385;BME280;44185;47.844;8.966;2022-11-20T11:29:43;95811.31;;;4.96;100.00
58385;BME280;44185;47.844;8.966;2022-11-20T11:32:13;95807.00;;;4.95;100.00
58385;BME280;44185;47.844;8.966;2022-11-20T11:34:40;95810.75;;;5.04;100.00
58385;BME280;44185;47.844;8.966;2022-11-20T11:37:12;95816.72;;;5.06;100.00
58385;BME280;44185;47.844;8.966;2022-11-20T11:39:41;95811.81;;;5.01;100.00
58385;BME280;44185;47.844;8.966;2022-11-20T11:42:11;95802.56;;;5.08;100.00
58385;BME280;44185;47.844;8.966;2022-11-20T11:44:44;95804.53;;;5.05;100.00
58385;BME280;44185;47.844;8.966;2022-11-20T11:47:20;95790.78;;;5.14;100.00
58385;BME280;44185;47.844;8.966;2022-11-20T11:49:48;95795.19;;;5.14;100.00
58385;BME280;44185;47.844;8.966;2022-11-20T11:52:16;95788.50;;;5.09;100.00
58385;BME280;44185;47.844;8.966;2022-11-20T11:54:47;95796.97;;;5.13;100.00
58385;BME280;44185;47.844;8.966;2022-11-20T11:57:21;95786.81;;;5.08;100.00
58385;BME280;44185;47.844;8.966;2022-11-20T12:00:00;95794.34;;;5.13;100.00
58385;BME280;44185;47.844;8.966;2022-11-20T12:02:33;95779.78;;;5.09;100.00
58385;BME280;44185;47.844;8.966;2022-11-20T12:05:10;95785.03;;;5.09;100.00
58385;BME280;44185;47.844;8.966;2022-11-20T12:07:41;95777.78;;;5.12;100.00
58385;BME280;44185;47.844;8.966;2022-11-20T12:10:19;95771.25;;;5.18;100.00
58385;BME280;44185;47.844;8.966;2022-11-20T12:12:48;95770.53;;;5.16;100.00
58385;BME280;44185;47.844;8.966;2022-11-20T12:15:23;95768.88;;;5.02;100.00
58385;BME280;44185;47.844;8.966;2022-11-20T12:17:50;95768.88;;;5.02;100.00
58385;BME280;44185;47.844;8.966;2022-11-20T12:20:17;95768.63;;;5.18;100.00
58385;BME280;44185;47.844;8.966;2022-11-20T12:22:50;95768.41;;;5.21;100.00
58385;BME280;44185;47.844;8.966;2022-11-20T12:25:20;95760.66;;;5.20;100.00
58385;BME280;44185;47.844;8.966;2022-11-20T12:28:07;95763.88;;;5.23;100.00
58385;BME280;44185;47.844;8.966;2022-11-20T12:30:41;95766.84;;;5.19;100.00
58385;BME280;44185;47.844;8.966;2022-11-20T12:33:25;95761.38;;;5.22;100.00
58385;BME280;44185;47.844;8.966;2022-11-20T12:36:07;95753.91;;;5.29;100.00
58385;BME280;44185;47.844;8.966;2022-11-20T12:38:45;95755.81;;;5.27;100.00
58385;BME280;44185;47.844;8.966;2022-11-20T12:41:21;95755.16;;;5.36;100.00
58385;BME280;44185;47.844;8.966;2022-11-20T12:43:58;95755.75;;;5.40;100.00
58385;BME280;44185;47.844;8.966;2022-11-20T12:46:31;95747.38;;;5.34;100.00
58385;BME280;44185;47.844;8.966;2022-11-20T12:49:21;95754.59;;;5.44;100.00
58385;BME280;44185;47.844;8.966;2022-11-20T12:52:05;95751.28;;;5.53;100.00
58385;BME280;44185;47.844;8.966;2022-11-20T12:54:46;95743.53;;;5.52;100.00
58385;BME280;44185;47.844;8.966;2022-11-20T12:57:20;95739.06;;;5.77;100.00
58385;BME280;44185;47.844;8.966;2022-11-20T13:00:08;95735.03;;;5.84;100.00
58385;BME280;44185;47.844;8.966;2022-11-20T13:02:41;95725.16;;;5.99;100.00
58385;BME280;44185;47.844;8.966;2022-11-20T13:05:18;95727.13;;;6.43;98.45
58385;BME280;44185;47.844;8.966;2022-11-20T13:07:46;95721.53;;;6.71;97.87
58385;BME280;44185;47.844;8.966;2022-11-20T13:10:16;95717.22;;;6.82;95.79
58385;BME280;44185;47.844;8.966;2022-11-20T13:12:46;95716.22;;;7.06;94.41
58385;BME280;44185;47.844;8.966;2022-11-20T13:15:21;95717.03;;;7.06;95.23
58385;BME280;44185;47.844;8.966;2022-11-20T13:17:54;95711.75;;;7.18;95.76
58385;BME280;44185;47.844;8.966;2022-11-20T13:20:21;95712.53;;;6.85;91.35
58385;BME280;44185;47.844;8.966;2022-11-20T13:22:49;95714.31;;;6.85;91.37
58385;BME280;44185;47.844;8.966;2022-11-20T13:25:25;95710.72;;;6.97;90.48
58385;BME280;44185;47.844;8.966;2022-11-20T13:27:51;95709.81;;;6.75;91.57
58385;BME280;44185;47.844;8.966;2022-11-20T13:30:19;95702.25;;;6.82;90.61
58385;BME280;44185;47.844;8.966;2022-11-20T13:32:50;95700.63;;;6.47;91.22
58385;BME280;44185;47.844;8.966;2022-11-20T13:35:25;95701.22;;;6.27;93.86
58385;BME280;44185;47.844;8.966;2022-11-20T13:38:05;95701.97;;;5.93;95.31
58385;BME280;44185;47.844;8.966;2022-11-20T13:40:31;95702.34;;;6.00;95.13
58385;BME280;44185;47.844;8.966;2022-11-20T13:43:07;95698.59;;;5.79;94.54
58385;BME280;44185;47.844;8.966;2022-11-20T13:45:33;95690.03;;;5.77;96.62
58385;BME280;44185;47.844;8.966;2022-11-20T13:48:02;95683.22;;;5.75;93.96
58385;BME280;44185;47.844;8.966;2022-11-20T13:50:40;95693.94;;;5.72;94.28
58385;BME280;44185;47.844;8.966;2022-11-20T13:53:24;95698.81;;;5.65;92.65
58385;BME280;44185;47.844;8.966;2022-11-20T13:55:57;95690.09;;;5.64;93.69
58385;BME280;44185;47.844;8.966;2022-11-20T13:58:30;95689.13;;;5.65;95.32
58385;BME280;44185;47.844;8.966;2022-11-20T14:01:08;95693.22;;;5.70;95.18
58385;BME280;44185;47.844;8.966;2022-11-20T14:03:35;95688.81;;;5.70;93.65
58385;BME280;44185;47.844;8.966;2022-11-20T14:06:03;95683.22;;;5.75;94.91
58385;BME280;44185;47.844;8.966;2022-11-20T14:08:36;95684.06;;;5.75;94.83
58385;BME280;44185;47.844;8.966;2022-11-20T14:11:04;95675.09;;;5.78;95.64
58385;BME280;44185;47.844;8.966;2022-11-20T14:13:30;95676.66;;;5.81;96.36
58385;BME280;44185;47.844;8.966;2022-11-20T14:15:57;95665.19;;;5.82;93.61
58385;BME280;44185;47.844;8.966;2022-11-20T14:18:22;95654.72;;;5.93;94.40
58385;BME280;44185;47.844;8.966;2022-11-20T14:20:49;95657.34;;;5.93;94.36
58385;BME280;44185;47.844;8.966;2022-11-20T14:23:23;95659.72;;;5.85;93.72
58385;BME280;44185;47.844;8.966;2022-11-20T14:25:51;95655.66;;;5.81;93.85
58385;BME280;44185;47.844;8.966;2022-11-20T14:28:23;95655.66;;;5.81;94.25
58385;BME280;44185;47.844;8.966;2022-11-20T14:30:50;95652.41;;;5.77;92.79
58385;BME280;44185;47.844;8.966;2022-11-20T14:33:16;95658.28;;;5.81;94.03
58385;BME280;44185;47.844;8.966;2022-11-20T14:35:45;95659.34;;;5.78;93.37
58385;BME280;44185;47.844;8.966;2022-11-20T14:38:13;95664.69;;;5.76;94.06
58385;BME280;44185;47.844;8.966;2022-11-20T14:40:39;95661.00;;;5.79;93.01
58385;BME280;44185;47.844;8.966;2022-11-20T14:43:17;95662.47;;;5.83;94.07
58385;BME280;44185;47.844;8.966;2022-11-20T14:45:43;95667.59;;;5.85;94.24
58385;BME280;44185;47.844;8.966;2022-11-20T14:48:10;95666.53;;;5.87;93.89
58385;BME280;44185;47.844;8.966;2022-11-20T14:50:38;95662.22;;;5.98;95.60
58385;BME280;44185;47.844;8.966;2022-11-20T14:53:04;95656.63;;;5.91;93.25
58385;BME280;44185;47.844;8.966;2022-11-20T14:55:32;95650.28;;;5.82;94.70
58385;BME280;44185;47.844;8.966;2022-11-20T14:57:59;95640.25;;;5.76;95.81
58385;BME280;44185;47.844;8.966;2022-11-20T15:00:27;95638.19;;;5.68;94.41
58385;BME280;44185;47.844;8.966;2022-11-20T15:02:53;95636.31;;;5.70;95.73
58385;BME280;44185;47.844;8.966;2022-11-20T15:05:20;95629.81;;;5.63;95.72
58385;BME280;44185;47.844;8.966;2022-11-20T15:07:48;95627.31;;;5.50;95.57
58385;BME280;44185;47.844;8.966;2022-11-20T15:10:22;95637.56;;;5.41;95.48
58385;BME280;44185;47.844;8.966;2022-11-20T15:12:49;95630.84;;;5.37;95.38
58385;BME280;44185;47.844;8.966;2022-11-20T15:15:19;95630.81;;;5.26;95.92
58385;BME280;44185;47.844;8.966;2022-11-20T15:17:47;95621.72;;;5.18;96.38
58385;BME280;44185;47.844;8.966;2022-11-20T15:20:15;95616.00;;;5.13;95.89
58385;BME280;44185;47.844;8.966;2022-11-20T15:22:41;95615.28;;;5.11;94.37
58385;BME280;44185;47.844;8.966;2022-11-20T15:25:12;95618.25;;;5.06;95.46
58385;BME280;44185;47.844;8.966;2022-11-20T15:27:38;95616.34;;;5.08;96.46
58385;BME280;44185;47.844;8.966;2022-11-20T15:30:12;95621.31;;;5.00;95.27
58385;BME280;44185;47.844;8.966;2022-11-20T15:32:38;95610.09;;;4.98;95.03
58385;BME280;44185;47.844;8.966;2022-11-20T15:35:06;95617.25;;;4.96;96.07
58385;BME280;44185;47.844;8.966;2022-11-20T15:37:31;95606.97;;;4.93;96.56
58385;BME280;44185;47.844;8.966;2022-11-20T15:39:57;95603.25;;;4.84;96.41
58385;BME280;44185;47.844;8.966;2022-11-20T15:42:22;95601.59;;;4.83;98.15
58385;BME280;44185;47.844;8.966;2022-11-20T15:44:48;95605.88;;;4.84;99.03
58385;BME280;44185;47.844;8.966;2022-11-20T15:47:13;95598.22;;;4.81;97.28
58385;BME280;44185;47.844;8.966;2022-11-20T15:49:39;95605.00;;;4.72;97.62
58385;BME280;44185;47.844;8.966;2022-11-20T15:52:08;95596.63;;;4.66;97.88
58385;BME280;44185;47.844;8.966;2022-11-20T15:54:34;95586.13;;;4.66;98.67
58385;BME280;44185;47.844;8.966;2022-11-20T15:56:59;95586.97;;;4.67;99.46
58385;BME280;44185;47.844;8.966;2022-11-20T15:59:24;95583.09;;;4.60;99.25
58385;BME280;44185;47.844;8.966;2022-11-20T16:01:50;95588.47;;;4.58;98.80
58385;BME280;44185;47.844;8.966;2022-11-20T16:04:16;95582.19;;;4.61;99.71
58385;BME280;44185;47.844;8.966;2022-11-20T16:06:41;95575.59;;;4.55;99.69
58385;BME280;44185;47.844;8.966;2022-11-20T16:09:08;95588.31;;;4.48;100.00
58385;BME280;44185;47.844;8.966;2022-11-20T16:11:34;95583.66;;;4.52;100.00
58385;BME280;44185;47.844;8.966;2022-11-20T16:13:59;95588.91;;;4.52;100.00
58385;BME280;44185;47.844;8.966;2022-11-20T16:16:27;95586.28;;;4.52;100.00
58385;BME280;44185;47.844;8.966;2022-11-20T16:18:53;95581.59;;;4.44;100.00
58385;BME280;44185;47.844;8.966;2022-11-20T16:21:18;95585.78;;;4.47;100.00
58385;BME280;44185;47.844;8.966;2022-11-20T16:23:44;95584.13;;;4.45;100.00
58385;BME280;44185;47.844;8.966;2022-11-20T16:26:12;95586.50;;;4.49;100.00
58385;BME280;44185;47.844;8.966;2022-11-20T16:28:38;95578.38;;;4.40;100.00
58385;BME280;44185;47.844;8.966;2022-11-20T16:31:08;95578.59;;;4.37;100.00
58385;BME280;44185;47.844;8.966;2022-11-20T16:33:34;95576.53;;;4.29;100.00
58385;BME280;44185;47.844;8.966;2022-11-20T16:36:06;95575.75;;;4.03;100.00
58385;BME280;44185;47.844;8.966;2022-11-20T16:38:31;95578.50;;;3.88;100.00
58385;BME280;44185;47.844;8.966;2022-11-20T16:40:59;95579.13;;;3.92;100.00
58385;BME280;44185;47.844;8.966;2022-11-20T16:43:27;95570.63;;;3.88;100.00
58385;BME280;44185;47.844;8.966;2022-11-20T16:45:52;95565.34;;;3.63;100.00
58385;BME280;44185;47.844;8.966;2022-11-20T16:48:17;95558.44;;;3.49;100.00
58385;BME280;44185;47.844;8.966;2022-11-20T16:50:47;95558.44;;;3.36;100.00
58385;BME280;44185;47.844;8.966;2022-11-20T16:53:13;95554.47;;;3.30;100.00
58385;BME280;44185;47.844;8.966;2022-11-20T16:55:38;95552.16;;;3.13;100.00
58385;BME280;44185;47.844;8.966;2022-11-20T16:58:04;95555.56;;;3.00;100.00
58385;BME280;44185;47.844;8.966;2022-11-20T17:00:31;95554.97;;;3.09;100.00
58385;BME280;44185;47.844;8.966;2022-11-20T17:02:56;95548.69;;;3.12;100.00
58385;BME280;44185;47.844;8.966;2022-11-20T17:05:22;95560.50;;;3.05;100.00
58385;BME280;44185;47.844;8.966;2022-11-20T17:07:47;95557.06;;;3.04;100.00
58385;BME280;44185;47.844;8.966;2022-11-20T17:10:12;95563.66;;;3.10;100.00
58385;BME280;44185;47.844;8.966;2022-11-20T17:12:38;95576.41;;;3.02;100.00
58385;BME280;44185;47.844;8.966;2022-11-20T17:15:04;95568.03;;;2.96;100.00
58385;BME280;44185;47.844;8.966;2022-11-20T17:17:31;95575.34;;;3.04;100.00
58385;BME280;44185;47.844;8.966;2022-11-20T17:19:57;95568.03;;;3.09;100.00
58385;BME280;44185;47.844;8.966;2022-11-20T17:22:22;95563.63;;;2.97;100.00
58385;BME280;44185;47.844;8.966;2022-11-20T17:24:47;95563.72;;;2.95;100.00
58385;BME280;44185;47.844;8.966;2022-11-20T17:27:13;95560.06;;;2.98;100.00
58385;BME280;44185;47.844;8.966;2022-11-20T17:29:38;95560.91;;;2.98;100.00
58385;BME280;44185;47.844;8.966;2022-11-20T17:32:04;95553.41;;;3.07;100.00
58385;BME280;44185;47.844;8.966;2022-11-20T17:34:31;95552.56;;;3.06;100.00
58385;BME280;44185;47.844;8.966;2022-11-20T17:36:56;95545.97;;;3.00;100.00
58385;BME280;44185;47.844;8.966;2022-11-20T17:39:22;95549.03;;;3.07;100.00
58385;BME280;44185;47.844;8.966;2022-11-20T17:41:47;95549.41;;;3.01;100.00
58385;BME280;44185;47.844;8.966;2022-11-20T17:44:13;95551.91;;;3.03;100.00
58385;BME280;44185;47.844;8.966;2022-11-20T17:46:39;95557.25;;;3.01;100.00
58385;BME280;44185;47.844;8.966;2022-11-20T17:49:05;95554.00;;;2.97;100.00
58385;BME280;44185;47.844;8.966;2022-11-20T17:51:33;95559.34;;;2.96;100.00
58385;BME280;44185;47.844;8.966;2022-11-20T17:54:00;95542.78;;;2.82;100.00
58385;BME280;44185;47.844;8.966;2022-11-20T17:56:29;95548.88;;;2.83;100.00
58385;BME280;44185;47.844;8.966;2022-11-20T17:58:56;95546.09;;;2.71;100.00
58385;BME280;44185;47.844;8.966;2022-11-20T18:01:21;95546.94;;;2.72;100.00
58385;BME280;44185;47.844;8.966;2022-11-20T18:03:47;95538.19;;;2.73;100.00
58385;BME280;44185;47.844;8.966;2022-11-20T18:06:14;95541.13;;;2.68;100.00
58385;BME280;44185;47.844;8.966;2022-11-20T18:08:42;95544.16;;;2.75;100.00
58385;BME280;44185;47.844;8.966;2022-11-20T18:11:11;95540.69;;;2.74;100.00
58385;BME280;44185;47.844;8.966;2022-11-20T18:13:37;95546.56;;;2.78;100.00
58385;BME280;44185;47.844;8.966;2022-11-20T18:16:05;95540.88;;;2.71;100.00
58385;BME280;44185;47.844;8.966;2022-11-20T18:18:31;95534.97;;;2.82;100.00
58385;BME280;44185;47.844;8.966;2022-11-20T18:20:56;95534.56;;;2.88;100.00
58385;BME280;44185;47.844;8.966;2022-11-20T18:23:22;95529.84;;;2.94;100.00
58385;BME280;44185;47.844;8.966;2022-11-20T18:25:49;95533.63;;;3.03;100.00
58385;BME280;44185;47.844;8.966;2022-11-20T18:28:14;95535.84;;;3.09;100.00
58385;BME280;44185;47.844;8.966;2022-11-20T18:30:39;95527.66;;;3.14;100.00
58385;BME280;44185;47.844;8.966;2022-11-20T18:33:05;95520.06;;;3.10;100.00
58385;BME280;44185;47.844;8.966;2022-11-20T18:35:30;95535.22;;;3.18;100.00
58385;BME280;44185;47.844;8.966;2022-11-20T18:37:56;95531.56;;;3.21;100.00
58385;BME280;44185;47.844;8.966;2022-11-20T18:40:21;95531.25;;;3.26;100.00
58385;BME280;44185;47.844;8.966;2022-11-20T18:42:48;95529.25;;;3.29;100.00
58385;BME280;44185;47.844;8.966;2022-11-20T18:45:13;95524.25;;;3.26;100.00
58385;BME280;44185;47.844;8.966;2022-11-20T18:47:39;95522.88;;;3.33;100.00
58385;BME280;44185;47.844;8.966;2022-11-20T18:50:06;95524.66;;;3.33;100.00
58385;BME280;44185;47.844;8.966;2022-11-20T18:52:33;95520.97;;;3.36;100.00
58385;BME280;44185;47.844;8.966;2022-11-20T18:54:59;95519.72;;;3.41;100.00
58385;BME280;44185;47.844;8.966;2022-11-20T18:57:26;95527.56;;;3.41;100.00
58385;BME280;44185;47.844;8.966;2022-11-20T18:59:54;95518.88;;;3.41;100.00
58385;BME280;44185;47.844;8.966;2022-11-20T19:02:20;95520.25;;;3.47;100.00
58385;BME280;44185;47.844;8.966;2022-11-20T19:04:46;95517.22;;;3.53;100.00
58385;BME280;44185;47.844;8.966;2022-11-20T19:07:12;95526.31;;;3.60;100.00
58385;BME280;44185;47.844;8.966;2022-11-20T19:09:38;95521.28;;;3.57;100.00
58385;BME280;44185;47.844;8.966;2022-11-20T19:12:05;95527.56;;;3.54;100.00
58385;BME280;44185;47.844;8.966;2022-11-20T19:14:30;95530.59;;;3.61;100.00
58385;BME280;44185;47.844;8.966;2022-11-20T19:16:57;95539.19;;;3.63;100.00
58385;BME280;44185;47.844;8.966;2022-11-20T19:19:23;95537.28;;;3.65;100.00
58385;BME280;44185;47.844;8.966;2022-11-20T19:21:49;95532.25;;;3.62;100.00
58385;BME280;44185;47.844;8.966;2022-11-20T19:24:15;95537.28;;;3.65;100.00
58385;BME280;44185;47.844;8.966;2022-11-20T19:26:40;95535.06;;;3.72;100.00
58385;BME280;44185;47.844;8.966;2022-11-20T19:29:06;95538.53;;;3.73;100.00
58385;BME280;44185;47.844;8.966;2022-11-20T19:31:32;95542.53;;;3.65;100.00
58385;BME280;44185;47.844;8.966;2022-11-20T19:34:00;95553.06;;;3.64;100.00
58385;BME280;44185;47.844;8.966;2022-11-20T19:36:27;95554.25;;;3.60;100.00
58385;BME280;44185;47.844;8.966;2022-11-20T19:38:53;95553.06;;;3.64;100.00
58385;BME280;44185;47.844;8.966;2022-11-20T19:41:21;95556.13;;;3.58;100.00
58385;BME280;44185;47.844;8.966;2022-11-20T19:43:47;95555.63;;;3.52;100.00
58385;BME280;44185;47.844;8.966;2022-11-20T19:46:12;95550.19;;;3.55;100.00
58385;BME280;44185;47.844;8.966;2022-11-20T19:48:38;95560.72;;;3.54;100.00
58385;BME280;44185;47.844;8.966;2022-11-20T19:51:08;95567.22;;;3.48;100.00